sensor_id;sensor_type;location;lat;lon;timestamp;P1;durP1;ratioP1;P2;durP2;ratioP2
34296;SDS011;20564;42.902;25.336;2023-08-01T00:01:50;10.23;;;3.85;;
34296;SDS011;20564;42.902;25.336;2023-08-01T00:04:17;10.38;;;4.32;;
34296;SDS011;20564;42.902;25.336;2023-08-01T00:06:45;9.95;;;4.15;;
34296;SDS011;20564;42.902;25.336;2023-08-01T00:09:11;11.15;;;4.00;;
34296;SDS011;20564;42.902;25.336;2023-08-01T00:11:39;9.00;;;3.92;;
34296;SDS011;20564;42.902;25.336;2023-08-01T00:14:06;9.45;;;4.30;;
34296;SDS011;20564;42.902;25.336;2023-08-01T00:16:33;9.63;;;4.15;;
34296;SDS011;20564;42.902;25.336;2023-08-01T00:19:01;10.63;;;4.43;;
34296;SDS011;20564;42.902;25.336;2023-08-01T00:21:28;9.77;;;3.90;;
34296;SDS011;20564;42.902;25.336;2023-08-01T00:23:57;10.85;;;4.53;;
34296;SDS011;20564;42.902;25.336;2023-08-01T00:26:24;10.63;;;4.40;;
34296;SDS011;20564;42.902;25.336;2023-08-01T00:28:51;11.83;;;4.70;;
34296;SDS011;20564;42.902;25.336;2023-08-01T00:31:18;10.73;;;4.07;;
34296;SDS011;20564;42.902;25.336;2023-08-01T00:33:45;9.90;;;3.83;;
34296;SDS011;20564;42.902;25.336;2023-08-01T00:36:12;9.98;;;4.25;;
34296;SDS011;20564;42.902;25.336;2023-08-01T00:38:39;12.00;;;4.25;;
34296;SDS011;20564;42.902;25.336;2023-08-01T00:41:07;9.25;;;4.10;;
34296;SDS011;20564;42.902;25.336;2023-08-01T00:43:34;9.47;;;3.90;;
34296;SDS011;20564;42.902;25.336;2023-08-01T00:46:03;8.82;;;3.88;;
34296;SDS011;20564;42.902;25.336;2023-08-01T00:48:31;10.63;;;4.20;;
34296;SDS011;20564;42.902;25.336;2023-08-01T00:50:59;11.48;;;3.85;;
34296;SDS011;20564;42.902;25.336;2023-08-01T00:53:30;9.88;;;4.28;;
34296;SDS011;20564;42.902;25.336;2023-08-01T00:58:25;10.40;;;4.03;;
34296;SDS011;20564;42.902;25.336;2023-08-01T01:00:52;10.80;;;4.60;;
34296;SDS011;20564;42.902;25.336;2023-08-01T01:03:19;9.75;;;4.38;;
34296;SDS011;20564;42.902;25.336;2023-08-01T01:05:57;11.18;;;4.93;;
34296;SDS011;20564;42.902;25.336;2023-08-01T01:08:26;10.90;;;4.28;;
34296;SDS011;20564;42.902;25.336;2023-08-01T01:10:53;9.80;;;3.90;;
34296;SDS011;20564;42.902;25.336;2023-08-01T01:13:20;10.70;;;4.25;;
34296;SDS011;20564;42.902;25.336;2023-08-01T01:15:47;9.82;;;4.20;;
34296;SDS011;20564;42.902;25.336;2023-08-01T01:18:14;10.93;;;4.40;;
34296;SDS011;20564;42.902;25.336;2023-08-01T01:20:41;10.45;;;4.32;;
34296;SDS011;20564;42.902;25.336;2023-08-01T01:23:08;10.33;;;4.50;;
34296;SDS011;20564;42.902;25.336;2023-08-01T01:25:36;10.07;;;4.13;;
34296;SDS011;20564;42.902;25.336;2023-08-01T01:28:05;10.40;;;3.80;;
34296;SDS011;20564;42.902;25.336;2023-08-01T01:30:34;8.77;;;3.58;;
34296;SDS011;20564;42.902;25.336;2023-08-01T01:33:02;9.68;;;3.90;;
34296;SDS011;20564;42.902;25.336;2023-08-01T01:35:32;9.85;;;4.03;;
34296;SDS011;20564;42.902;25.336;2023-08-01T01:38:01;11.05;;;3.80;;
34296;SDS011;20564;42.902;25.336;2023-08-01T01:40:32;8.07;;;3.63;;
34296;SDS011;20564;42.902;25.336;2023-08-01T01:43:00;10.65;;;4.32;;
34296;SDS011;20564;42.902;25.336;2023-08-01T01:45:28;9.98;;;3.72;;
34296;SDS011;20564;42.902;25.336;2023-08-01T01:47:55;8.82;;;3.60;;
34296;SDS011;20564;42.902;25.336;2023-08-01T01:50:22;8.90;;;3.50;;
34296;SDS011;20564;42.902;25.336;2023-08-01T01:52:49;8.75;;;3.58;;
34296;SDS011;20564;42.902;25.336;2023-08-01T01:55:16;9.43;;;3.73;;
34296;SDS011;20564;42.902;25.336;2023-08-01T01:57:43;11.38;;;4.20;;
34296;SDS011;20564;42.902;25.336;2023-08-01T02:00:10;9.57;;;3.90;;
34296;SDS011;20564;42.902;25.336;2023-08-01T02:02:37;11.02;;;4.00;;
34296;SDS011;20564;42.902;25.336;2023-08-01T02:05:04;9.80;;;3.97;;
34296;SDS011;20564;42.902;25.336;2023-08-01T02:07:31;11.45;;;4.15;;
34296;SDS011;20564;42.902;25.336;2023-08-01T02:10:00;10.25;;;4.00;;
34296;SDS011;20564;42.902;25.336;2023-08-01T02:14:58;9.95;;;3.40;;
34296;SDS011;20564;42.902;25.336;2023-08-01T02:17:26;9.98;;;4.30;;
34296;SDS011;20564;42.902;25.336;2023-08-01T02:19:53;10.93;;;3.65;;
34296;SDS011;20564;42.902;25.336;2023-08-01T02:22:20;8.73;;;3.55;;
34296;SDS011;20564;42.902;25.336;2023-08-01T02:24:48;7.97;;;3.50;;
34296;SDS011;20564;42.902;25.336;2023-08-01T02:27:14;10.17;;;3.70;;
34296;SDS011;20564;42.902;25.336;2023-08-01T02:29:41;10.52;;;4.05;;
34296;SDS011;20564;42.902;25.336;2023-08-01T02:32:08;8.82;;;3.88;;
34296;SDS011;20564;42.902;25.336;2023-08-01T02:34:35;9.53;;;3.97;;
34296;SDS011;20564;42.902;25.336;2023-08-01T02:37:02;9.80;;;3.90;;
34296;SDS011;20564;42.902;25.336;2023-08-01T02:39:29;10.80;;;3.67;;
34296;SDS011;20564;42.902;25.336;2023-08-01T02:41:56;9.40;;;3.75;;
34296;SDS011;20564;42.902;25.336;2023-08-01T02:44:23;8.70;;;3.50;;
34296;SDS011;20564;42.902;25.336;2023-08-01T02:46:51;8.25;;;3.28;;
34296;SDS011;20564;42.902;25.336;2023-08-01T02:49:17;8.70;;;3.35;;
34296;SDS011;20564;42.902;25.336;2023-08-01T02:51:44;9.20;;;3.47;;
34296;SDS011;20564;42.902;25.336;2023-08-01T02:54:11;8.60;;;3.47;;
34296;SDS011;20564;42.902;25.336;2023-08-01T02:56:39;9.52;;;3.55;;
34296;SDS011;20564;42.902;25.336;2023-08-01T02:59:09;7.18;;;2.95;;
34296;SDS011;20564;42.902;25.336;2023-08-01T03:01:37;8.85;;;3.08;;
34296;SDS011;20564;42.902;25.336;2023-08-01T03:04:05;9.15;;;3.70;;
34296;SDS011;20564;42.902;25.336;2023-08-01T03:06:33;7.05;;;2.90;;
34296;SDS011;20564;42.902;25.336;2023-08-01T03:09:04;9.18;;;3.22;;
34296;SDS011;20564;42.902;25.336;2023-08-01T03:11:37;8.68;;;3.08;;
34296;SDS011;20564;42.902;25.336;2023-08-01T03:14:04;8.25;;;3.28;;
34296;SDS011;20564;42.902;25.336;2023-08-01T03:16:31;7.43;;;2.83;;
34296;SDS011;20564;42.902;25.336;2023-08-01T03:18:58;10.00;;;3.63;;
34296;SDS011;20564;42.902;25.336;2023-08-01T03:21:33;8.25;;;3.28;;
34296;SDS011;20564;42.902;25.336;2023-08-01T03:24:01;7.00;;;2.90;;
34296;SDS011;20564;42.902;25.336;2023-08-01T03:26:29;7.07;;;3.10;;
34296;SDS011;20564;42.902;25.336;2023-08-01T03:28:56;7.78;;;3.08;;
34296;SDS011;20564;42.902;25.336;2023-08-01T03:31:23;7.57;;;2.90;;
34296;SDS011;20564;42.902;25.336;2023-08-01T03:33:50;7.38;;;2.78;;
34296;SDS011;20564;42.902;25.336;2023-08-01T03:36:17;8.40;;;2.78;;
34296;SDS011;20564;42.902;25.336;2023-08-01T03:38:44;7.47;;;2.80;;
34296;SDS011;20564;42.902;25.336;2023-08-01T03:41:11;8.80;;;3.43;;
34296;SDS011;20564;42.902;25.336;2023-08-01T03:43:38;7.68;;;3.25;;
34296;SDS011;20564;42.902;25.336;2023-08-01T03:46:05;8.13;;;3.10;;
34296;SDS011;20564;42.902;25.336;2023-08-01T03:48:32;7.43;;;2.70;;
34296;SDS011;20564;42.902;25.336;2023-08-01T03:50:59;8.50;;;2.90;;
34296;SDS011;20564;42.902;25.336;2023-08-01T03:53:26;6.75;;;2.45;;
34296;SDS011;20564;42.902;25.336;2023-08-01T03:55:53;6.80;;;2.53;;
34296;SDS011;20564;42.902;25.336;2023-08-01T03:58:21;6.22;;;2.38;;
34296;SDS011;20564;42.902;25.336;2023-08-01T04:00:48;7.25;;;2.65;;
34296;SDS011;20564;42.902;25.336;2023-08-01T04:03:15;7.35;;;2.70;;
34296;SDS011;20564;42.902;25.336;2023-08-01T04:05:42;7.70;;;2.88;;
34296;SDS011;20564;42.902;25.336;2023-08-01T04:08:11;7.45;;;2.65;;
34296;SDS011;20564;42.902;25.336;2023-08-01T04:10:38;6.82;;;2.65;;
34296;SDS011;20564;42.902;25.336;2023-08-01T04:13:05;6.22;;;2.45;;
34296;SDS011;20564;42.902;25.336;2023-08-01T04:15:32;6.70;;;2.37;;
34296;SDS011;20564;42.902;25.336;2023-08-01T04:17:59;8.33;;;2.33;;
34296;SDS011;20564;42.902;25.336;2023-08-01T04:20:26;6.50;;;2.58;;
34296;SDS011;20564;42.902;25.336;2023-08-01T04:22:53;7.88;;;2.95;;
34296;SDS011;20564;42.902;25.336;2023-08-01T04:25:20;6.20;;;2.77;;
34296;SDS011;20564;42.902;25.336;2023-08-01T04:27:46;7.97;;;2.60;;
34296;SDS011;20564;42.902;25.336;2023-08-01T04:30:13;7.30;;;2.45;;
34296;SDS011;20564;42.902;25.336;2023-08-01T04:32:40;7.25;;;2.83;;
34296;SDS011;20564;42.902;25.336;2023-08-01T04:35:07;11.20;;;2.70;;
34296;SDS011;20564;42.902;25.336;2023-08-01T04:37:34;9.15;;;2.40;;
34296;SDS011;20564;42.902;25.336;2023-08-01T04:40:01;5.50;;;2.30;;
34296;SDS011;20564;42.902;25.336;2023-08-01T04:42:29;6.03;;;2.33;;
34296;SDS011;20564;42.902;25.336;2023-08-01T04:47:23;6.45;;;2.40;;
34296;SDS011;20564;42.902;25.336;2023-08-01T04:49:53;4.82;;;2.13;;
34296;SDS011;20564;42.902;25.336;2023-08-01T04:52:20;7.07;;;2.00;;
34296;SDS011;20564;42.902;25.336;2023-08-01T04:54:47;7.60;;;2.03;;
34296;SDS011;20564;42.902;25.336;2023-08-01T04:57:15;5.75;;;2.40;;
34296;SDS011;20564;42.902;25.336;2023-08-01T04:59:42;5.13;;;1.97;;
34296;SDS011;20564;42.902;25.336;2023-08-01T05:02:09;11.27;;;3.05;;
34296;SDS011;20564;42.902;25.336;2023-08-01T05:04:36;4.70;;;1.67;;
34296;SDS011;20564;42.902;25.336;2023-08-01T05:07:03;5.25;;;1.98;;
34296;SDS011;20564;42.902;25.336;2023-08-01T05:09:32;4.05;;;1.70;;
34296;SDS011;20564;42.902;25.336;2023-08-01T05:12:00;5.75;;;2.33;;
34296;SDS011;20564;42.902;25.336;2023-08-01T05:14:27;3.33;;;1.70;;
34296;SDS011;20564;42.902;25.336;2023-08-01T05:16:53;4.03;;;1.67;;
34296;SDS011;20564;42.902;25.336;2023-08-01T05:19:21;4.43;;;1.67;;
34296;SDS011;20564;42.902;25.336;2023-08-01T05:21:48;4.90;;;2.00;;
34296;SDS011;20564;42.902;25.336;2023-08-01T05:26:43;4.88;;;2.10;;
34296;SDS011;20564;42.902;25.336;2023-08-01T05:29:09;4.65;;;1.88;;
34296;SDS011;20564;42.902;25.336;2023-08-01T05:31:36;3.97;;;1.70;;
34296;SDS011;20564;42.902;25.336;2023-08-01T05:34:06;4.30;;;1.63;;
34296;SDS011;20564;42.902;25.336;2023-08-01T05:36:33;5.95;;;1.95;;
34296;SDS011;20564;42.902;25.336;2023-08-01T05:39:00;4.72;;;1.83;;
34296;SDS011;20564;42.902;25.336;2023-08-01T05:41:27;3.47;;;1.58;;
34296;SDS011;20564;42.902;25.336;2023-08-01T05:43:54;4.97;;;1.85;;
34296;SDS011;20564;42.902;25.336;2023-08-01T05:46:22;4.35;;;1.95;;
34296;SDS011;20564;42.902;25.336;2023-08-01T05:48:49;5.03;;;2.03;;
34296;SDS011;20564;42.902;25.336;2023-08-01T05:51:16;10.57;;;2.55;;
34296;SDS011;20564;42.902;25.336;2023-08-01T05:53:43;4.72;;;2.00;;
34296;SDS011;20564;42.902;25.336;2023-08-01T05:56:10;5.47;;;1.70;;
34296;SDS011;20564;42.902;25.336;2023-08-01T05:58:37;4.28;;;2.10;;
34296;SDS011;20564;42.902;25.336;2023-08-01T06:01:05;4.95;;;2.03;;
34296;SDS011;20564;42.902;25.336;2023-08-01T06:03:35;4.20;;;1.70;;
34296;SDS011;20564;42.902;25.336;2023-08-01T06:06:02;4.45;;;1.77;;
34296;SDS011;20564;42.902;25.336;2023-08-01T06:08:29;4.78;;;1.75;;
34296;SDS011;20564;42.902;25.336;2023-08-01T06:10:56;3.72;;;1.63;;
34296;SDS011;20564;42.902;25.336;2023-08-01T06:13:23;4.78;;;1.70;;
34296;SDS011;20564;42.902;25.336;2023-08-01T06:15:50;2.90;;;1.40;;
34296;SDS011;20564;42.902;25.336;2023-08-01T06:18:18;10.10;;;2.38;;
34296;SDS011;20564;42.902;25.336;2023-08-01T06:20:45;14.57;;;2.10;;
34296;SDS011;20564;42.902;25.336;2023-08-01T06:23:11;6.35;;;1.95;;
34296;SDS011;20564;42.902;25.336;2023-08-01T06:25:38;14.63;;;2.38;;
34296;SDS011;20564;42.902;25.336;2023-08-01T06:28:05;6.45;;;2.05;;
34296;SDS011;20564;42.902;25.336;2023-08-01T06:30:33;5.05;;;1.55;;
34296;SDS011;20564;42.902;25.336;2023-08-01T06:32:59;3.58;;;1.50;;
34296;SDS011;20564;42.902;25.336;2023-08-01T06:35:26;5.50;;;1.63;;
34296;SDS011;20564;42.902;25.336;2023-08-01T06:37:53;5.47;;;1.40;;
34296;SDS011;20564;42.902;25.336;2023-08-01T06:40:20;2.08;;;1.08;;
34296;SDS011;20564;42.902;25.336;2023-08-01T06:42:47;3.00;;;1.25;;
34296;SDS011;20564;42.902;25.336;2023-08-01T06:45:14;2.25;;;1.23;;
34296;SDS011;20564;42.902;25.336;2023-08-01T06:47:41;3.15;;;1.38;;
34296;SDS011;20564;42.902;25.336;2023-08-01T06:50:08;2.28;;;1.25;;
34296;SDS011;20564;42.902;25.336;2023-08-01T06:52:36;2.63;;;1.02;;
34296;SDS011;20564;42.902;25.336;2023-08-01T06:55:03;3.08;;;1.23;;
34296;SDS011;20564;42.902;25.336;2023-08-01T06:57:33;3.63;;;1.35;;
34296;SDS011;20564;42.902;25.336;2023-08-01T07:00:00;2.78;;;1.23;;
34296;SDS011;20564;42.902;25.336;2023-08-01T07:02:26;2.03;;;0.90;;
34296;SDS011;20564;42.902;25.336;2023-08-01T07:04:54;3.15;;;1.30;;
34296;SDS011;20564;42.902;25.336;2023-08-01T07:07:20;3.13;;;1.10;;
34296;SDS011;20564;42.902;25.336;2023-08-01T07:09:47;2.92;;;1.23;;
34296;SDS011;20564;42.902;25.336;2023-08-01T07:12:14;4.72;;;1.30;;
34296;SDS011;20564;42.902;25.336;2023-08-01T07:14:41;4.28;;;1.02;;
34296;SDS011;20564;42.902;25.336;2023-08-01T07:19:35;3.20;;;1.08;;
34296;SDS011;20564;42.902;25.336;2023-08-01T07:22:02;3.47;;;1.40;;
34296;SDS011;20564;42.902;25.336;2023-08-01T07:24:29;4.05;;;1.17;;
34296;SDS011;20564;42.902;25.336;2023-08-01T07:26:55;4.75;;;1.02;;
34296;SDS011;20564;42.902;25.336;2023-08-01T07:29:22;3.75;;;1.08;;
34296;SDS011;20564;42.902;25.336;2023-08-01T07:31:49;1.88;;;0.80;;
34296;SDS011;20564;42.902;25.336;2023-08-01T07:34:16;2.38;;;0.82;;
34296;SDS011;20564;42.902;25.336;2023-08-01T07:36:45;2.90;;;0.68;;
34296;SDS011;20564;42.902;25.336;2023-08-01T07:39:15;2.83;;;1.10;;
34296;SDS011;20564;42.902;25.336;2023-08-01T07:41:42;2.13;;;1.10;;
34296;SDS011;20564;42.902;25.336;2023-08-01T07:44:09;1.92;;;1.00;;
34296;SDS011;20564;42.902;25.336;2023-08-01T07:46:36;2.63;;;0.80;;
34296;SDS011;20564;42.902;25.336;2023-08-01T07:49:03;2.85;;;0.90;;
34296;SDS011;20564;42.902;25.336;2023-08-01T07:51:30;1.70;;;0.73;;
34296;SDS011;20564;42.902;25.336;2023-08-01T07:56:24;2.08;;;0.85;;
34296;SDS011;20564;42.902;25.336;2023-08-01T08:08:39;3.67;;;0.82;;
34296;SDS011;20564;42.902;25.336;2023-08-01T08:11:06;2.40;;;0.90;;
34296;SDS011;20564;42.902;25.336;2023-08-01T08:13:33;4.55;;;0.90;;
34296;SDS011;20564;42.902;25.336;2023-08-01T08:16:00;1.58;;;0.60;;
34296;SDS011;20564;42.902;25.336;2023-08-01T08:20:54;2.85;;;1.00;;
34296;SDS011;20564;42.902;25.336;2023-08-01T08:23:21;1.73;;;0.73;;
34296;SDS011;20564;42.902;25.336;2023-08-01T08:25:47;3.65;;;1.10;;
34296;SDS011;20564;42.902;25.336;2023-08-01T08:28:26;1.92;;;0.80;;
34296;SDS011;20564;42.902;25.336;2023-08-01T08:30:55;1.85;;;0.85;;
34296;SDS011;20564;42.902;25.336;2023-08-01T08:33:22;1.83;;;0.88;;
34296;SDS011;20564;42.902;25.336;2023-08-01T08:35:49;1.67;;;0.75;;
34296;SDS011;20564;42.902;25.336;2023-08-01T08:38:17;4.63;;;1.25;;
34296;SDS011;20564;42.902;25.336;2023-08-01T08:41:28;3.40;;;1.00;;
34296;SDS011;20564;42.902;25.336;2023-08-01T08:43:47;4.45;;;1.10;;
34296;SDS011;20564;42.902;25.336;2023-08-01T08:46:16;2.40;;;1.20;;
34296;SDS011;20564;42.902;25.336;2023-08-01T08:48:43;3.38;;;1.00;;
34296;SDS011;20564;42.902;25.336;2023-08-01T08:51:13;2.83;;;0.60;;
34296;SDS011;20564;42.902;25.336;2023-08-01T08:53:41;2.28;;;0.85;;
34296;SDS011;20564;42.902;25.336;2023-08-01T08:56:11;2.70;;;0.60;;
34296;SDS011;20564;42.902;25.336;2023-08-01T08:58:38;2.60;;;1.15;;
34296;SDS011;20564;42.902;25.336;2023-08-01T09:01:05;2.10;;;0.90;;
34296;SDS011;20564;42.902;25.336;2023-08-01T09:03:34;2.53;;;1.00;;
34296;SDS011;20564;42.902;25.336;2023-08-01T09:06:07;1.23;;;0.80;;
34296;SDS011;20564;42.902;25.336;2023-08-01T09:11:06;1.42;;;0.80;;
34296;SDS011;20564;42.902;25.336;2023-08-01T09:13:33;2.42;;;0.70;;
34296;SDS011;20564;42.902;25.336;2023-08-01T09:16:02;3.00;;;1.00;;
34296;SDS011;20564;42.902;25.336;2023-08-01T09:18:30;1.40;;;0.80;;
34296;SDS011;20564;42.902;25.336;2023-08-01T09:23:29;2.58;;;0.77;;
34296;SDS011;20564;42.902;25.336;2023-08-01T09:25:57;1.90;;;0.93;;
34296;SDS011;20564;42.902;25.336;2023-08-01T09:28:26;2.28;;;0.70;;
34296;SDS011;20564;42.902;25.336;2023-08-01T09:30:54;2.53;;;0.82;;
34296;SDS011;20564;42.902;25.336;2023-08-01T09:33:22;4.50;;;1.05;;
34296;SDS011;20564;42.902;25.336;2023-08-01T09:35:50;1.83;;;0.85;;
34296;SDS011;20564;42.902;25.336;2023-08-01T09:38:18;1.35;;;0.73;;
34296;SDS011;20564;42.902;25.336;2023-08-01T09:40:45;2.63;;;1.17;;
34296;SDS011;20564;42.902;25.336;2023-08-01T09:43:14;3.60;;;0.95;;
34296;SDS011;20564;42.902;25.336;2023-08-01T09:48:27;3.13;;;1.30;;
34296;SDS011;20564;42.902;25.336;2023-08-01T09:53:35;1.10;;;0.85;;
34296;SDS011;20564;42.902;25.336;2023-08-01T09:56:14;2.03;;;0.95;;
34296;SDS011;20564;42.902;25.336;2023-08-01T10:01:27;2.15;;;0.75;;
34296;SDS011;20564;42.902;25.336;2023-08-01T10:03:58;3.03;;;0.80;;
34296;SDS011;20564;42.902;25.336;2023-08-01T10:06:28;1.58;;;0.90;;
34296;SDS011;20564;42.902;25.336;2023-08-01T10:08:58;2.45;;;0.90;;
34296;SDS011;20564;42.902;25.336;2023-08-01T10:11:26;1.77;;;1.05;;
34296;SDS011;20564;42.902;25.336;2023-08-01T10:13:57;2.75;;;1.05;;
34296;SDS011;20564;42.902;25.336;2023-08-01T10:18:50;3.83;;;1.00;;
34296;SDS011;20564;42.902;25.336;2023-08-01T10:21:18;1.27;;;0.75;;
34296;SDS011;20564;42.902;25.336;2023-08-01T10:23:47;1.75;;;0.90;;
34296;SDS011;20564;42.902;25.336;2023-08-01T10:26:15;4.18;;;1.05;;
34296;SDS011;20564;42.902;25.336;2023-08-01T10:28:51;2.90;;;1.17;;
34296;SDS011;20564;42.902;25.336;2023-08-01T10:31:19;1.73;;;0.90;;
34296;SDS011;20564;42.902;25.336;2023-08-01T10:33:48;2.20;;;1.00;;
34296;SDS011;20564;42.902;25.336;2023-08-01T10:38:51;1.45;;;0.75;;
34296;SDS011;20564;42.902;25.336;2023-08-01T10:44:06;2.42;;;1.10;;
34296;SDS011;20564;42.902;25.336;2023-08-01T10:54:57;1.67;;;0.90;;
34296;SDS011;20564;42.902;25.336;2023-08-01T10:57:34;3.05;;;1.38;;
34296;SDS011;20564;42.902;25.336;2023-08-01T11:00:02;3.08;;;0.95;;
34296;SDS011;20564;42.902;25.336;2023-08-01T11:02:35;2.58;;;1.05;;
34296;SDS011;20564;42.902;25.336;2023-08-01T11:05:06;4.75;;;1.38;;
34296;SDS011;20564;42.902;25.336;2023-08-01T11:07:34;2.35;;;1.10;;
34296;SDS011;20564;42.902;25.336;2023-08-01T11:12:36;5.97;;;1.38;;
34296;SDS011;20564;42.902;25.336;2023-08-01T11:15:06;2.10;;;1.05;;
34296;SDS011;20564;42.902;25.336;2023-08-01T11:17:36;2.53;;;1.10;;
34296;SDS011;20564;42.902;25.336;2023-08-01T11:20:10;3.45;;;1.13;;
34296;SDS011;20564;42.902;25.336;2023-08-01T11:22:49;2.00;;;0.90;;
34296;SDS011;20564;42.902;25.336;2023-08-01T11:25:30;2.88;;;1.05;;
34296;SDS011;20564;42.902;25.336;2023-08-01T11:28:14;2.45;;;1.00;;
34296;SDS011;20564;42.902;25.336;2023-08-01T11:30:42;2.60;;;1.08;;
34296;SDS011;20564;42.902;25.336;2023-08-01T11:33:18;2.80;;;1.15;;
34296;SDS011;20564;42.902;25.336;2023-08-01T11:35:55;2.55;;;1.08;;
34296;SDS011;20564;42.902;25.336;2023-08-01T11:38:27;2.78;;;1.13;;
34296;SDS011;20564;42.902;25.336;2023-08-01T11:40:56;4.72;;;1.05;;
34296;SDS011;20564;42.902;25.336;2023-08-01T11:43:24;3.33;;;1.52;;
34296;SDS011;20564;42.902;25.336;2023-08-01T11:48:21;3.30;;;1.25;;
34296;SDS011;20564;42.902;25.336;2023-08-01T11:50:49;6.32;;;1.17;;
34296;SDS011;20564;42.902;25.336;2023-08-01T11:53:23;3.55;;;1.70;;
34296;SDS011;20564;42.902;25.336;2023-08-01T11:55:50;7.88;;;1.40;;
34296;SDS011;20564;42.902;25.336;2023-08-01T11:58:29;3.97;;;1.15;;
34296;SDS011;20564;42.902;25.336;2023-08-01T12:01:07;2.97;;;1.10;;
34296;SDS011;20564;42.902;25.336;2023-08-01T12:03:42;6.28;;;1.70;;
34296;SDS011;20564;42.902;25.336;2023-08-01T12:06:13;1.80;;;0.95;;
34296;SDS011;20564;42.902;25.336;2023-08-01T12:08:42;3.72;;;0.90;;
34296;SDS011;20564;42.902;25.336;2023-08-01T12:14:03;3.75;;;1.08;;
34296;SDS011;20564;42.902;25.336;2023-08-01T12:16:41;2.60;;;1.00;;
34296;SDS011;20564;42.902;25.336;2023-08-01T12:19:19;2.92;;;1.30;;
34296;SDS011;20564;42.902;25.336;2023-08-01T12:21:48;4.85;;;1.13;;
34296;SDS011;20564;42.902;25.336;2023-08-01T12:24:15;3.40;;;1.15;;
34296;SDS011;20564;42.902;25.336;2023-08-01T12:29:10;2.65;;;1.23;;
34296;SDS011;20564;42.902;25.336;2023-08-01T12:34:04;1.80;;;0.90;;
34296;SDS011;20564;42.902;25.336;2023-08-01T12:36:34;2.47;;;1.40;;
34296;SDS011;20564;42.902;25.336;2023-08-01T12:39:01;2.97;;;1.13;;
34296;SDS011;20564;42.902;25.336;2023-08-01T12:41:29;1.70;;;0.90;;
34296;SDS011;20564;42.902;25.336;2023-08-01T12:43:56;2.53;;;1.05;;
34296;SDS011;20564;42.902;25.336;2023-08-01T12:46:24;2.33;;;1.00;;
34296;SDS011;20564;42.902;25.336;2023-08-01T12:48:52;2.17;;;1.10;;
34296;SDS011;20564;42.902;25.336;2023-08-01T12:51:19;2.95;;;1.42;;
34296;SDS011;20564;42.902;25.336;2023-08-01T12:53:47;1.95;;;1.08;;
34296;SDS011;20564;42.902;25.336;2023-08-01T12:56:14;2.03;;;1.00;;
34296;SDS011;20564;42.902;25.336;2023-08-01T12:58:43;2.30;;;1.20;;
34296;SDS011;20564;42.902;25.336;2023-08-01T13:01:12;3.17;;;1.00;;
34296;SDS011;20564;42.902;25.336;2023-08-01T13:06:06;2.67;;;1.27;;
34296;SDS011;20564;42.902;25.336;2023-08-01T13:08:36;2.58;;;1.27;;
34296;SDS011;20564;42.902;25.336;2023-08-01T13:11:09;2.72;;;1.20;;
34296;SDS011;20564;42.902;25.336;2023-08-01T13:13:40;4.28;;;1.10;;
34296;SDS011;20564;42.902;25.336;2023-08-01T13:16:08;1.75;;;1.10;;
34296;SDS011;20564;42.902;25.336;2023-08-01T13:21:02;2.10;;;1.00;;
34296;SDS011;20564;42.902;25.336;2023-08-01T13:23:29;2.38;;;1.30;;
34296;SDS011;20564;42.902;25.336;2023-08-01T13:25:56;3.03;;;1.08;;
34296;SDS011;20564;42.902;25.336;2023-08-01T13:28:25;2.22;;;1.40;;
34296;SDS011;20564;42.902;25.336;2023-08-01T13:30:51;4.47;;;1.35;;
34296;SDS011;20564;42.902;25.336;2023-08-01T13:33:18;2.95;;;1.15;;
34296;SDS011;20564;42.902;25.336;2023-08-01T13:38:12;3.92;;;1.30;;
34296;SDS011;20564;42.902;25.336;2023-08-01T13:40:40;2.55;;;1.08;;
34296;SDS011;20564;42.902;25.336;2023-08-01T13:45:33;1.42;;;0.90;;
34296;SDS011;20564;42.902;25.336;2023-08-01T13:48:01;3.45;;;1.15;;
34296;SDS011;20564;42.902;25.336;2023-08-01T13:50:28;2.75;;;1.25;;
34296;SDS011;20564;42.902;25.336;2023-08-01T13:52:56;1.85;;;0.93;;
34296;SDS011;20564;42.902;25.336;2023-08-01T13:55:23;3.53;;;1.30;;
34296;SDS011;20564;42.902;25.336;2023-08-01T14:00:18;2.63;;;1.30;;
34296;SDS011;20564;42.902;25.336;2023-08-01T14:02:48;2.10;;;1.15;;
34296;SDS011;20564;42.902;25.336;2023-08-01T14:05:17;2.03;;;1.02;;
34296;SDS011;20564;42.902;25.336;2023-08-01T14:07:46;2.15;;;1.00;;
34296;SDS011;20564;42.902;25.336;2023-08-01T14:10:13;3.85;;;1.20;;
34296;SDS011;20564;42.902;25.336;2023-08-01T14:12:41;2.45;;;1.08;;
34296;SDS011;20564;42.902;25.336;2023-08-01T14:15:09;3.97;;;1.50;;
34296;SDS011;20564;42.902;25.336;2023-08-01T14:17:37;2.28;;;1.00;;
34296;SDS011;20564;42.902;25.336;2023-08-01T14:20:05;2.67;;;1.08;;
34296;SDS011;20564;42.902;25.336;2023-08-01T14:22:32;2.65;;;1.13;;
34296;SDS011;20564;42.902;25.336;2023-08-01T14:29:53;2.47;;;1.23;;
34296;SDS011;20564;42.902;25.336;2023-08-01T14:32:20;2.88;;;1.15;;
34296;SDS011;20564;42.902;25.336;2023-08-01T14:34:48;2.72;;;1.30;;
34296;SDS011;20564;42.902;25.336;2023-08-01T14:37:15;3.17;;;1.45;;
34296;SDS011;20564;42.902;25.336;2023-08-01T14:39:42;2.03;;;1.15;;
34296;SDS011;20564;42.902;25.336;2023-08-01T14:42:09;4.40;;;1.25;;
34296;SDS011;20564;42.902;25.336;2023-08-01T14:44:36;3.22;;;1.23;;
34296;SDS011;20564;42.902;25.336;2023-08-01T14:49:30;3.78;;;1.20;;
34296;SDS011;20564;42.902;25.336;2023-08-01T14:57:08;2.92;;;1.15;;
34296;SDS011;20564;42.902;25.336;2023-08-01T14:59:36;2.85;;;1.30;;
34296;SDS011;20564;42.902;25.336;2023-08-01T15:02:04;3.00;;;1.27;;
34296;SDS011;20564;42.902;25.336;2023-08-01T15:04:36;1.67;;;1.02;;
34296;SDS011;20564;42.902;25.336;2023-08-01T15:07:03;4.05;;;1.40;;
34296;SDS011;20564;42.902;25.336;2023-08-01T15:09:31;1.92;;;1.23;;
34296;SDS011;20564;42.902;25.336;2023-08-01T15:12:00;3.78;;;1.23;;
34296;SDS011;20564;42.902;25.336;2023-08-01T15:14:29;3.05;;;1.20;;
34296;SDS011;20564;42.902;25.336;2023-08-01T15:16:56;2.47;;;1.17;;
34296;SDS011;20564;42.902;25.336;2023-08-01T15:19:23;2.92;;;1.33;;
34296;SDS011;20564;42.902;25.336;2023-08-01T15:21:50;4.78;;;1.17;;
34296;SDS011;20564;42.902;25.336;2023-08-01T15:24:17;4.80;;;1.25;;
34296;SDS011;20564;42.902;25.336;2023-08-01T15:26:44;3.90;;;1.50;;
34296;SDS011;20564;42.902;25.336;2023-08-01T15:29:12;3.88;;;1.48;;
34296;SDS011;20564;42.902;25.336;2023-08-01T15:31:43;2.15;;;1.20;;
34296;SDS011;20564;42.902;25.336;2023-08-01T15:34:31;2.40;;;1.20;;
34296;SDS011;20564;42.902;25.336;2023-08-01T15:36:57;2.33;;;1.08;;
34296;SDS011;20564;42.902;25.336;2023-08-01T15:39:26;2.60;;;1.35;;
34296;SDS011;20564;42.902;25.336;2023-08-01T15:41:53;4.22;;;1.58;;
34296;SDS011;20564;42.902;25.336;2023-08-01T15:44:20;2.60;;;1.30;;
34296;SDS011;20564;42.902;25.336;2023-08-01T15:46:47;2.58;;;1.30;;
34296;SDS011;20564;42.902;25.336;2023-08-01T15:49:15;2.45;;;1.23;;
34296;SDS011;20564;42.902;25.336;2023-08-01T15:51:44;1.77;;;1.13;;
34296;SDS011;20564;42.902;25.336;2023-08-01T15:54:11;3.25;;;1.42;;
34296;SDS011;20564;42.902;25.336;2023-08-01T15:56:38;3.72;;;1.23;;
34296;SDS011;20564;42.902;25.336;2023-08-01T15:59:09;2.17;;;1.35;;
34296;SDS011;20564;42.902;25.336;2023-08-01T16:01:36;2.88;;;1.40;;
34296;SDS011;20564;42.902;25.336;2023-08-01T16:04:03;3.50;;;1.63;;
34296;SDS011;20564;42.902;25.336;2023-08-01T16:06:30;3.75;;;1.80;;
34296;SDS011;20564;42.902;25.336;2023-08-01T16:08:57;5.53;;;1.27;;
34296;SDS011;20564;42.902;25.336;2023-08-01T16:11:23;2.22;;;1.15;;
34296;SDS011;20564;42.902;25.336;2023-08-01T16:13:50;2.95;;;1.40;;